Time,TemperatureF,DewpointF,PressureIn,WindDirection,WindDirectionDegrees,WindSpeedMPH,WindSpeedGustMPH,Humidity,HourlyPrecipIn,Conditions,Clouds,dailyrainin,SolarRadiationWatts/m^2,SoftwareType,DateUTC
2013-03-03 00:01:00,35.0,14.0,-100.00,NNW,345,0.0,6.0,42,0.00,,,0.00,0.000000,,2013-03-03 08:01:00,
2013-03-03 00:11:00,35.0,14.0,-100.00,NNW,345,0.0,6.0,42,0.00,,,0.00,0.000000,,2013-03-03 08:11:00,
2013-03-03 00:21:00,35.0,14.0,-100.00,NNW,345,0.0,6.0,42,0.00,,,0.00,0.000000,,2013-03-03 08:21:00,
2013-03-03 00:31:00,35.0,14.0,-100.00,NNW,345,0.0,6.0,42,0.00,,,0.00,0.000000,,2013-03-03 08:31:00,
2013-03-03 00:54:00,34.0,11.0,-100.00,North,11,1.0,5.0,37,0.00,,,0.00,0.000000,,2013-03-03 08:54:00,
2013-03-03 01:01:00,34.0,11.0,-100.00,North,11,1.0,5.0,37,0.00,,,0.00,0.000000,,2013-03-03 09:01:00,
2013-03-03 01:11:00,34.0,11.0,-100.00,North,11,1.0,5.0,37,0.00,,,0.00,0.000000,,2013-03-03 09:11:00,
2013-03-03 01:21:00,34.0,11.0,-100.00,North,11,1.0,5.0,37,0.00,,,0.00,0.000000,,2013-03-03 09:21:00,
2013-03-03 01:31:00,34.0,11.0,-100.00,North,11,1.0,5.0,37,0.00,,,0.00,0.000000,,2013-03-03 09:31:00,
2013-03-03 01:52:00,33.0,17.0,-100.00,North,9,3.0,5.0,51,0.00,,,0.00,0.000000,,2013-03-03 09:52:00,
2013-03-03 02:01:00,33.0,17.0,-100.00,North,9,3.0,5.0,51,0.00,,,0.00,0.000000,,2013-03-03 10:01:00,
2013-03-03 02:11:00,33.0,17.0,-100.00,North,9,3.0,5.0,51,0.00,,,0.00,0.000000,,2013-03-03 10:11:00,
2013-03-03 02:21:00,33.0,17.0,-100.00,North,9,3.0,5.0,51,0.00,,,0.00,0.000000,,2013-03-03 10:21:00,
2013-03-03 02:31:00,33.0,17.0,-100.00,North,9,3.0,5.0,51,0.00,,,0.00,0.000000,,2013-03-03 10:31:00,
2013-03-03 02:52:00,34.0,15.0,-100.00,NNE,15,1.0,5.0,45,0.00,,,0.00,0.000000,,2013-03-03 10:52:00,
2013-03-03 03:01:00,34.0,15.0,-100.00,NNE,15,1.0,5.0,45,0.00,,,0.00,0.000000,,2013-03-03 11:01:00,
2013-03-03 03:11:00,34.0,15.0,-100.00,NNE,15,1.0,5.0,45,0.00,,,0.00,0.000000,,2013-03-03 11:11:00,
2013-03-03 03:21:00,34.0,15.0,-100.00,NNE,15,1.0,5.0,45,0.00,,,0.00,0.000000,,2013-03-03 11:21:00,
2013-03-03 03:31:00,34.0,15.0,-100.00,NNE,15,1.0,5.0,45,0.00,,,0.00,0.000000,,2013-03-03 11:31:00,
2013-03-03 03:52:00,39.0,17.0,-100.00,North,351,0.0,5.0,40,0.00,,,0.00,0.000000,,2013-03-03 11:52:00,
2013-03-03 04:01:00,39.0,17.0,-100.00,North,351,0.0,5.0,40,0.00,,,0.00,0.000000,,2013-03-03 12:01:00,
2013-03-03 04:11:00,39.0,17.0,-100.00,North,351,0.0,5.0,40,0.00,,,0.00,0.000000,,2013-03-03 12:11:00,
2013-03-03 04:21:00,39.0,17.0,-100.00,North,351,0.0,5.0,40,0.00,,,0.00,0.000000,,2013-03-03 12:21:00,
2013-03-03 04:31:00,39.0,17.0,-100.00,North,351,0.0,5.0,40,0.00,,,0.00,0.000000,,2013-03-03 12:31:00,
2013-03-03 05:01:00,40.0,16.0,-100.00,SSE,155,1.0,9.0,37,0.00,,,0.00,0.000000,,2013-03-03 13:01:00,
2013-03-03 05:11:00,40.0,16.0,-100.00,SSE,155,1.0,9.0,37,0.00,,,0.00,0.000000,,2013-03-03 13:11:00,
2013-03-03 05:21:00,40.0,16.0,-100.00,SSE,155,1.0,9.0,37,0.00,,,0.00,0.000000,,2013-03-03 13:21:00,
2013-03-03 05:31:00,40.0,16.0,-100.00,SSE,155,1.0,9.0,37,0.00,,,0.00,0.000000,,2013-03-03 13:31:00,
2013-03-03 06:01:00,43.0,26.0,-100.00,North,356,2.0,7.0,50,0.00,,,0.00,0.000000,,2013-03-03 14:01:00,
2013-03-03 06:11:00,43.0,26.0,-100.00,North,356,2.0,7.0,50,0.00,,,0.00,0.000000,,2013-03-03 14:11:00,
2013-03-03 06:21:00,43.0,26.0,-100.00,North,356,2.0,7.0,50,0.00,,,0.00,0.000000,,2013-03-03 14:21:00,
2013-03-03 06:31:00,43.0,26.0,-100.00,North,356,2.0,7.0,50,0.00,,,0.00,0.000000,,2013-03-03 14:31:00,
2013-03-03 07:01:00,44.0,27.0,-100.00,NNW,337,5.0,11.0,51,0.00,,,0.00,2.000000,,2013-03-03 15:01:00,
2013-03-03 07:11:00,44.0,27.0,-100.00,NNW,337,5.0,11.0,51,0.00,,,0.00,2.000000,,2013-03-03 15:11:00,
2013-03-03 07:22:00,44.0,27.0,-100.00,NNW,337,5.0,11.0,51,0.00,,,0.00,2.000000,,2013-03-03 15:22:00,
2013-03-03 07:31:00,44.0,27.0,-100.00,NNW,337,5.0,11.0,51,0.00,,,0.00,2.000000,,2013-03-03 15:31:00,
2013-03-03 07:52:00,45.0,28.0,-100.00,NNW,334,5.0,18.0,51,0.00,,,0.00,22.000000,,2013-03-03 15:52:00,
2013-03-03 08:01:00,45.0,28.0,-100.00,NNW,334,5.0,18.0,51,0.00,,,0.00,22.000000,,2013-03-03 16:01:00,
2013-03-03 08:12:00,45.0,28.0,-100.00,NNW,334,5.0,18.0,51,0.00,,,0.00,22.000000,,2013-03-03 16:12:00,
2013-03-03 08:21:00,45.0,28.0,-100.00,NNW,334,5.0,18.0,51,0.00,,,0.00,22.000000,,2013-03-03 16:21:00,
2013-03-03 08:31:00,45.0,28.0,-100.00,NNW,334,5.0,18.0,51,0.00,,,0.00,22.000000,,2013-03-03 16:31:00,
2013-03-03 08:52:00,50.0,26.0,-100.00,North,355,5.0,16.0,39,0.00,,,0.00,230.000000,,2013-03-03 16:52:00,
2013-03-03 09:01:00,50.0,26.0,-100.00,North,355,5.0,16.0,39,0.00,,,0.00,230.000000,,2013-03-03 17:01:00,
2013-03-03 09:11:00,50.0,26.0,-100.00,North,355,5.0,16.0,39,0.00,,,0.00,230.000000,,2013-03-03 17:11:00,
2013-03-03 09:22:00,50.0,26.0,-100.00,North,355,5.0,16.0,39,0.00,,,0.00,230.000000,,2013-03-03 17:22:00,
2013-03-03 09:32:00,50.0,26.0,-100.00,North,355,5.0,16.0,39,0.00,,,0.00,230.000000,,2013-03-03 17:32:00,
2013-03-03 09:52:00,52.0,22.0,-100.00,SSW,193,7.0,16.0,31,0.00,,,-99.99,631.000000,,2013-03-03 17:52:00,
2013-03-03 10:01:00,52.0,22.0,-100.00,SSW,193,7.0,16.0,31,0.00,,,-99.99,631.000000,,2013-03-03 18:01:00,
2013-03-03 10:11:00,52.0,22.0,-100.00,SSW,193,7.0,16.0,31,0.00,,,-99.99,631.000000,,2013-03-03 18:11:00,
2013-03-03 10:21:00,52.0,22.0,-100.00,SSW,193,7.0,16.0,31,0.00,,,-99.99,631.000000,,2013-03-03 18:21:00,
2013-03-03 10:31:00,52.0,22.0,-100.00,SSW,193,7.0,16.0,31,0.00,,,-99.99,631.000000,,2013-03-03 18:31:00,
2013-03-03 10:52:00,52.0,21.0,-100.00,South,185,8.0,19.0,29,0.00,,,0.00,833.000000,,2013-03-03 18:52:00,
2013-03-03 11:01:00,52.0,21.0,-100.00,South,185,8.0,19.0,29,0.00,,,0.00,833.000000,,2013-03-03 19:01:00,
2013-03-03 11:11:00,52.0,21.0,-100.00,South,185,8.0,19.0,29,0.00,,,0.00,833.000000,,2013-03-03 19:11:00,
2013-03-03 11:21:00,52.0,21.0,-100.00,South,185,8.0,19.0,29,0.00,,,0.00,833.000000,,2013-03-03 19:21:00,
2013-03-03 11:31:00,52.0,21.0,-100.00,South,185,8.0,19.0,29,0.00,,,0.00,833.000000,,2013-03-03 19:31:00,
2013-03-03 12:01:00,52.0,22.0,-100.00,SSW,200,8.0,19.0,31,0.00,,,0.00,949.000000,,2013-03-03 20:01:00,
2013-03-03 12:11:00,52.0,22.0,-100.00,SSW,200,8.0,19.0,31,0.00,,,0.00,949.000000,,2013-03-03 20:11:00,
2013-03-03 12:21:00,52.0,22.0,-100.00,SSW,200,8.0,19.0,31,0.00,,,0.00,949.000000,,2013-03-03 20:21:00,
2013-03-03 12:32:00,52.0,22.0,-100.00,SSW,200,8.0,19.0,31,0.00,,,0.00,949.000000,,2013-03-03 20:32:00,
2013-03-03 12:53:00,52.0,21.0,-100.00,SSW,193,8.0,18.0,29,0.00,,,0.00,979.000000,,2013-03-03 20:53:00,
2013-03-03 13:01:00,52.0,21.0,-100.00,SSW,193,8.0,18.0,29,0.00,,,0.00,979.000000,,2013-03-03 21:01:00,
2013-03-03 13:11:00,52.0,21.0,-100.00,SSW,193,8.0,18.0,29,0.00,,,0.00,979.000000,,2013-03-03 21:11:00,
2013-03-03 13:21:00,52.0,21.0,-100.00,SSW,193,8.0,18.0,29,0.00,,,0.00,979.000000,,2013-03-03 21:21:00,
2013-03-03 13:31:00,52.0,21.0,-100.00,SSW,193,8.0,18.0,29,0.00,,,0.00,979.000000,,2013-03-03 21:31:00,
2013-03-03 13:52:00,51.0,16.0,-100.00,SSW,201,9.0,25.0,24,0.00,,,0.00,860.000000,,2013-03-03 21:52:00,
2013-03-03 14:01:00,51.0,16.0,-100.00,SSW,201,9.0,25.0,24,0.00,,,0.00,860.000000,,2013-03-03 22:01:00,
2013-03-03 14:11:00,51.0,16.0,-100.00,SSW,201,9.0,25.0,24,0.00,,,0.00,860.000000,,2013-03-03 22:11:00,
2013-03-03 14:21:00,51.0,16.0,-100.00,SSW,201,9.0,25.0,24,0.00,,,0.00,860.000000,,2013-03-03 22:21:00,
2013-03-03 14:31:00,51.0,16.0,-100.00,SSW,201,9.0,25.0,24,0.00,,,0.00,860.000000,,2013-03-03 22:31:00,
2013-03-03 15:01:00,47.0,17.0,-100.00,SSW,197,8.0,20.0,30,0.00,,,0.00,657.000000,,2013-03-03 23:01:00,
2013-03-03 15:11:00,47.0,17.0,-100.00,SSW,197,8.0,20.0,30,0.00,,,0.00,657.000000,,2013-03-03 23:11:00,
2013-03-03 15:21:00,47.0,17.0,-100.00,SSW,197,8.0,20.0,30,0.00,,,0.00,657.000000,,2013-03-03 23:21:00,
2013-03-03 15:31:00,47.0,17.0,-100.00,SSW,197,8.0,20.0,30,0.00,,,0.00,657.000000,,2013-03-03 23:31:00,
2013-03-03 15:52:00,48.0,21.0,-100.00,South,189,10.0,23.0,34,0.00,,,0.00,628.000000,,2013-03-03 23:52:00,
2013-03-03 16:01:00,48.0,21.0,-100.00,South,189,10.0,23.0,34,0.00,,,0.00,628.000000,,2013-03-04 00:01:00,
2013-03-03 16:11:00,48.0,21.0,-100.00,South,189,10.0,23.0,34,0.00,,,0.00,628.000000,,2013-03-04 00:11:00,
2013-03-03 16:21:00,48.0,21.0,-100.00,South,189,10.0,23.0,34,0.00,,,0.00,628.000000,,2013-03-04 00:21:00,
2013-03-03 16:32:00,48.0,21.0,-100.00,South,189,10.0,23.0,34,0.00,,,0.00,628.000000,,2013-03-04 00:32:00,
2013-03-03 17:01:00,42.0,23.0,-100.00,SW,233,7.0,23.0,47,0.00,,,0.00,314.000000,,2013-03-04 01:01:00,
2013-03-03 17:11:00,42.0,23.0,-100.00,SW,233,7.0,23.0,47,0.00,,,0.00,314.000000,,2013-03-04 01:11:00,
2013-03-03 17:21:00,42.0,23.0,-100.00,SW,233,7.0,23.0,47,0.00,,,0.00,314.000000,,2013-03-04 01:21:00,
2013-03-03 17:31:00,42.0,23.0,-100.00,SW,233,7.0,23.0,47,0.00,,,0.00,314.000000,,2013-03-04 01:31:00,
2013-03-03 17:52:00,40.0,26.0,-100.00,ENE,78,5.0,20.0,58,0.00,,,0.00,45.000000,,2013-03-04 01:52:00,
2013-03-03 18:01:00,40.0,26.0,-100.00,ENE,78,5.0,20.0,58,0.00,,,0.00,45.000000,,2013-03-04 02:01:00,
2013-03-03 18:11:00,40.0,26.0,-100.00,ENE,78,5.0,20.0,58,0.00,,,0.00,45.000000,,2013-03-04 02:11:00,
2013-03-03 18:22:00,40.0,26.0,-100.00,ENE,78,5.0,20.0,58,0.00,,,0.00,45.000000,,2013-03-04 02:22:00,
2013-03-03 18:31:00,40.0,26.0,-100.00,ENE,78,5.0,20.0,58,0.00,,,0.00,45.000000,,2013-03-04 02:31:00,
2013-03-03 18:52:00,36.0,28.0,-100.00,SW,217,5.0,16.0,73,0.00,,,0.00,2.000000,,2013-03-04 02:52:00,
2013-03-03 19:01:00,36.0,28.0,-100.00,SW,217,5.0,16.0,73,0.00,,,0.00,2.000000,,2013-03-04 03:01:00,
2013-03-03 19:11:00,36.0,28.0,-100.00,SW,217,5.0,16.0,73,0.00,,,0.00,2.000000,,2013-03-04 03:11:00,
2013-03-03 19:21:00,36.0,28.0,-100.00,SW,217,5.0,16.0,73,0.00,,,0.00,2.000000,,2013-03-04 03:21:00,
2013-03-03 19:31:00,36.0,28.0,-100.00,SW,217,5.0,16.0,73,0.00,,,0.00,2.000000,,2013-03-04 03:31:00,
2013-03-03 19:52:00,37.0,28.0,-100.00,ESE,117,6.0,16.0,70,0.00,,,0.00,0.000000,,2013-03-04 03:52:00,
2013-03-03 20:01:00,37.0,28.0,-100.00,ESE,117,6.0,16.0,70,0.00,,,0.00,0.000000,,2013-03-04 04:01:00,
2013-03-03 20:11:00,37.0,28.0,-100.00,ESE,117,6.0,16.0,70,0.00,,,0.00,0.000000,,2013-03-04 04:11:00,
2013-03-03 20:22:00,37.0,28.0,-100.00,ESE,117,6.0,16.0,70,0.00,,,0.00,0.000000,,2013-03-04 04:22:00,
2013-03-03 20:31:00,37.0,28.0,-100.00,ESE,117,6.0,16.0,70,0.00,,,0.00,0.000000,,2013-03-04 04:31:00,
2013-03-03 20:52:00,35.0,28.0,-100.00,West,265,4.0,17.0,76,0.00,,,0.00,0.000000,,2013-03-04 04:52:00,
2013-03-03 21:01:00,35.0,28.0,-100.00,West,265,4.0,17.0,76,0.00,,,0.00,0.000000,,2013-03-04 05:01:00,
2013-03-03 21:11:00,35.0,28.0,-100.00,West,265,4.0,17.0,76,0.00,,,0.00,0.000000,,2013-03-04 05:11:00,
2013-03-03 21:22:00,35.0,28.0,-100.00,West,265,4.0,17.0,76,0.00,,,0.00,0.000000,,2013-03-04 05:22:00,
2013-03-03 21:31:00,35.0,28.0,-100.00,West,265,4.0,17.0,76,0.00,,,0.00,0.000000,,2013-03-04 05:31:00,
2013-03-03 22:01:00,36.0,31.0,-100.00,NNW,336,1.0,13.0,81,0.00,,,0.00,0.000000,,2013-03-04 06:01:00,
2013-03-03 22:11:00,36.0,31.0,-100.00,NNW,336,1.0,13.0,81,0.00,,,0.00,0.000000,,2013-03-04 06:11:00,
2013-03-03 22:21:00,36.0,31.0,-100.00,NNW,336,1.0,13.0,81,0.00,,,0.00,0.000000,,2013-03-04 06:21:00,
2013-03-03 22:31:00,36.0,31.0,-100.00,NNW,336,1.0,13.0,81,0.00,,,0.00,0.000000,,2013-03-04 06:31:00,
2013-03-03 23:01:00,36.0,30.0,-100.00,WNW,301,2.0,10.0,79,0.00,,,0.00,0.000000,,2013-03-04 07:01:00,
2013-03-03 23:11:00,36.0,30.0,-100.00,WNW,301,2.0,10.0,79,0.00,,,0.00,0.000000,,2013-03-04 07:11:00,
2013-03-03 23:21:00,36.0,30.0,-100.00,WNW,301,2.0,10.0,79,0.00,,,0.00,0.000000,,2013-03-04 07:21:00,
2013-03-03 23:31:00,36.0,30.0,-100.00,WNW,301,2.0,10.0,79,0.00,,,0.00,0.000000,,2013-03-04 07:31:00,
2013-03-03 23:52:00,35.0,32.0,-100.00,NNW,330,3.0,11.0,87,0.00,,,0.00,0.000000,,2013-03-04 07:52:00,